Columbia Falls, MT

2:19 AM MDT on September 05, 2015 (GMT -0600)
Tamarack Lane | | Change Station
CLOSE
Current Station
Personal Weather Station
Location: Columbia Falls, Mt
Elevation: 3133 ft
Nearby Weather Stations

Elev 3133 ft 48.38 °N, 114.19 °W | Updated 9 minutes ago

Mostly Cloudy
Mostly Cloudy
53.3 °F
Feels Like 53.3 °F
N
4.0
Wind Variable Wind from ESE
Gusts 4.0 mph

Today
High -- | Low -- °F
--% Chance of Precip.
Yesterday
High -- | Low -- °F
Precip. -- in
6:59 AM 8:10 PM
Waning Gibbous, 51% visible
Pressure 30.04 in
Visibility 10.0 miles
Clouds Overcast 500 ft
Dew Point 38 °F
Humidity 56%
Rainfall 0.00 in
Snow Depth Not available.
UV 0 out of 12
Pollen 6.50 out of 12
Air Quality Not available.
Flu Activity Not available.
METAR KCTB 050756Z AUTO 34011KT 10SM OVC005 07/06 A3002 RMK AO2 RAE21 SLP171 P0001 T00670061
Pressure 30.04 in
Visibility 10.0 miles
Clouds Overcast 500 ft
Dew Point 38 °F
Humidity 56%
Rainfall 0.00 in
Snow Depth Not available.
UV 0 out of 12
Pollen 6.50 out of 12
Air Quality Not available.
Flu Activity Not available.
METAR KCTB 050756Z AUTO 34011KT 10SM OVC005 07/06 A3002 RMK AO2 RAE21 SLP171 P0001 T00670061

10-Day Weather Forecast

×

Almanac

Astronomy

Sep. 05, 2015 Rise Set
Actual Time
Civil Twilight
Nautical Twilight
Astronomical Twilight
Moon
Length of Visible Light
Length of Day
Tomorrow will be .
, % of the Moon is Illuminated

Today's Extremes

State Highs State Lows

Community

WunderPhotos

Upload Photos

1,852,438 photos uploaded!

WunderBlogs® & News

Nearby

Air Quality

  Air Quality AQ Index Pollutant
Not available.

Snow Depth

Station Depth Elevation

Earthquake Activity

City Distance Mag. Time & Date
Minimum magnitude displayed is 2.5.

Coastal Water Temperatures

Place Temperature

Stations

Nearby Weather Stations

Station Location Temp. Windchill Dew Point Humidity Wind Precip. Elev Updated Type